Terminal Aerodrome Forecast
Issued by NWS Raleigh/Durham, NC

Home | Current Version | Previous Version | Text Only | Print | Product List | Glossary On
Versions: 1 2 3 4 5 6 7 8 9 10 11 12 13 14 15 16 17
000
FTUS42 KRAH 230945 AAC
TAFRDU
TAF AMD
KRDU 230945Z 2310/2406 19015G25KT 6SM -SHRA SCT008 BKN012 OVC030
      WS017/20050KT
      TEMPO 2310/2312 21020G30KT 3SM SHRA OVC008
     FM231500 24017G29KT P6SM VCSH SCT018 SCT050
      TEMPO 2315/2316 23024G34KT 3SM SHRA BKN015
     FM232000 26014G21KT P6SM SKC
     FM240000 30007KT P6SM SKC=

USA.gov is the U.S. government's official web portal to all federal, state and local government web resources and services.